Time;durP1;ratioP1;P1;durP2;ratioP2;P2;SDS_P1;SDS_P2;PMS_P1;PMS_P2;Temp;Humidity;BMP_temperature;BMP_pressure;BME280_temperature;BME280_humidity;BME280_pressure;Samples;Min_cycle;Max_cycle;Signal;HPM_P1;HPM_P2
2023/08/19 00:02:04;;;;;;;24.02;20.88;;;21.10;99.90;;;;;;5047735;28;20036;-82
2023/08/19 00:04:29;;;;;;;30.58;26.98;;;21.00;99.90;;;;;;5062401;28;20090;-82
2023/08/19 00:06:55;;;;;;;21.77;18.55;;;21.00;99.90;;;;;;5038322;28;20500;-82
2023/08/19 00:09:21;;;;;;;26.83;24.02;;;21.00;99.90;;;;;;5042338;28;20090;-82
2023/08/19 00:11:47;;;;;;;24.38;21.80;;;21.10;99.90;;;;;;5061091;28;20585;-82
2023/08/19 00:14:12;;;;;;;23.85;20.73;;;21.00;99.90;;;;;;5043709;28;20041;-82
2023/08/19 00:16:38;;;;;;;28.40;23.42;;;21.00;99.90;;;;;;5059622;28;20041;-82
2023/08/19 00:19:04;;;;;;;28.30;25.25;;;21.00;99.90;;;;;;5036244;28;20042;-82
2023/08/19 00:21:30;;;;;;;27.30;23.60;;;20.90;99.90;;;;;;5047974;28;20399;-82
2023/08/19 00:23:56;;;;;;;23.83;20.90;;;20.90;99.90;;;;;;5033797;28;20146;-82
2023/08/19 00:26:22;;;;;;;27.45;24.55;;;20.90;99.90;;;;;;5046516;28;20048;-82
2023/08/19 00:28:47;;;;;;;23.75;21.05;;;20.90;99.90;;;;;;5068418;28;20032;-82
2023/08/19 00:31:13;;;;;;;26.45;23.65;;;20.90;99.90;;;;;;5047499;28;20082;-82
2023/08/19 00:33:39;;;;;;;24.25;21.77;;;20.90;99.90;;;;;;5061882;28;20025;-82
2023/08/19 00:36:05;;;;;;;25.58;22.98;;;20.80;99.90;;;;;;5047610;28;20048;-82
2023/08/19 00:38:30;;;;;;;25.30;22.35;;;20.90;99.90;;;;;;5064983;28;20060;-82
2023/08/19 00:40:56;;;;;;;25.80;22.77;;;20.80;99.90;;;;;;5031214;28;20035;-82
2023/08/19 00:43:22;;;;;;;26.38;23.60;;;20.80;99.90;;;;;;5026923;28;20487;-82
2023/08/19 00:45:50;;;;;;;27.90;24.88;;;20.80;99.90;;;;;;5061229;28;20129;-82
2023/08/19 00:48:17;;;;;;;25.02;22.17;;;20.80;99.90;;;;;;5065031;28;20036;-82
2023/08/19 00:50:44;;;;;;;22.35;19.95;;;20.80;99.90;;;;;;5038598;28;20416;-82
2023/08/19 00:53:11;;;;;;;24.15;21.55;;;20.80;99.90;;;;;;5023774;28;20093;-82
2023/08/19 00:55:37;;;;;;;29.58;25.48;;;20.70;99.90;;;;;;5040480;28;20163;-82
2023/08/19 00:58:03;;;;;;;25.08;22.45;;;20.70;99.90;;;;;;5055216;28;20119;-82
2023/08/19 01:00:31;;;;;;;22.50;20.25;;;20.70;99.90;;;;;;5046971;28;20047;-82
2023/08/19 01:02:57;;;;;;;19.33;17.40;;;20.60;99.90;;;;;;5058967;28;20043;-82
2023/08/19 01:05:45;;;;;;;21.65;19.40;;;20.60;99.90;;;;;;5058646;28;20041;-82
2023/08/19 01:08:17;;;;;;;23.73;20.90;;;20.50;99.90;;;;;;5051415;28;20450;-82
2023/08/19 01:10:56;;;;;;;25.85;23.05;;;20.60;99.90;;;;;;5046926;28;20423;-82
2023/08/19 01:13:26;;;;;;;23.60;21.20;;;20.50;99.90;;;;;;5040134;28;20051;-81
2023/08/19 01:16:16;;;;;;;27.25;24.25;;;20.50;99.90;;;;;;5057754;28;20135;-82
2023/08/19 01:18:43;;;;;;;22.58;20.17;;;20.50;99.90;;;;;;5061833;28;20047;-82
2023/08/19 01:21:09;;;;;;;24.08;21.67;;;20.50;99.90;;;;;;5044734;28;20060;-82
2023/08/19 01:23:42;;;;;;;24.90;21.52;;;20.50;99.90;;;;;;5040124;28;20120;-82
2023/08/19 01:26:09;;;;;;;29.17;25.75;;;20.50;99.90;;;;;;5056132;28;20041;-82
2023/08/19 01:28:35;;;;;;;28.58;24.45;;;20.40;99.90;;;;;;5040187;28;20415;-82
2023/08/19 01:31:00;;;;;;;23.13;20.67;;;20.40;99.90;;;;;;5059327;28;20127;-82
2023/08/19 01:33:26;;;;;;;21.45;18.88;;;20.40;99.90;;;;;;5038779;28;20051;-82
2023/08/19 01:36:10;;;;;;;25.75;22.52;;;20.30;99.90;;;;;;5046157;28;20115;-82
2023/08/19 01:39:00;;;;;;;24.05;21.45;;;20.40;99.90;;;;;;5060039;28;20040;-82
2023/08/19 01:41:29;;;;;;;24.60;22.15;;;20.30;99.90;;;;;;5046275;28;20037;-82
2023/08/19 01:43:57;;;;;;;23.20;20.77;;;20.30;99.90;;;;;;5043836;28;20125;-82
2023/08/19 01:46:24;;;;;;;25.88;21.67;;;20.30;99.90;;;;;;5038817;28;20041;-79
2023/08/19 01:48:49;;;;;;;27.85;24.50;;;20.30;99.90;;;;;;5044870;28;20559;-80
2023/08/19 01:51:15;;;;;;;28.02;23.77;;;20.30;99.90;;;;;;5046166;28;20051;-79
2023/08/19 01:53:41;;;;;;;27.35;24.27;;;20.30;99.90;;;;;;5043827;28;20534;-79
2023/08/19 01:56:06;;;;;;;27.10;23.45;;;20.20;99.90;;;;;;5065471;28;20070;-79
2023/08/19 01:58:32;;;;;;;26.33;23.48;;;20.20;99.90;;;;;;5046027;28;20041;-79
2023/08/19 02:00:58;;;;;;;28.52;25.42;;;20.20;99.90;;;;;;5042654;28;20415;-80
2023/08/19 02:03:23;;;;;;;23.38;20.88;;;20.20;99.90;;;;;;5057556;28;20116;-79
2023/08/19 02:05:49;;;;;;;16.95;15.15;;;20.20;99.90;;;;;;5040057;28;20191;-79
2023/08/19 02:08:14;;;;;;;24.83;22.17;;;20.20;99.90;;;;;;5046392;28;20164;-79
2023/08/19 02:10:42;;;;;;;22.95;19.52;;;20.10;99.90;;;;;;5038865;28;20051;-79
2023/08/19 02:13:08;;;;;;;27.35;24.42;;;20.10;99.90;;;;;;5028005;28;20041;-79
2023/08/19 02:15:34;;;;;;;25.38;22.67;;;20.10;99.90;;;;;;5039295;28;20172;-80
2023/08/19 02:17:59;;;;;;;21.42;19.15;;;20.10;99.90;;;;;;5043298;28;20511;-79
2023/08/19 02:20:26;;;;;;;20.80;18.65;;;20.10;99.90;;;;;;5051433;28;20047;-79
2023/08/19 02:22:52;;;;;;;23.60;20.10;;;20.10;99.90;;;;;;5050082;28;20518;-79
2023/08/19 02:25:18;;;;;;;23.25;20.55;;;20.10;99.90;;;;;;5047596;28;20040;-79
2023/08/19 02:27:44;;;;;;;24.52;21.92;;;20.10;99.90;;;;;;5044540;28;20044;-79
2023/08/19 02:30:10;;;;;;;25.70;22.90;;;20.00;99.90;;;;;;5050023;28;20057;-79
2023/08/19 02:32:37;;;;;;;26.08;23.35;;;20.00;99.90;;;;;;5043825;28;20037;-80
2023/08/19 02:35:03;;;;;;;26.25;23.02;;;20.00;99.90;;;;;;5048336;28;20040;-80
2023/08/19 02:37:29;;;;;;;24.42;21.75;;;20.00;99.90;;;;;;5063852;28;20037;-82
2023/08/19 02:39:55;;;;;;;30.00;26.88;;;20.00;99.90;;;;;;5069884;28;20068;-81
2023/08/19 02:42:20;;;;;;;32.28;28.55;;;20.00;99.90;;;;;;5061266;28;20110;-82
2023/08/19 02:44:46;;;;;;;27.58;24.75;;;20.00;99.90;;;;;;5064327;28;20119;-82
2023/08/19 02:47:12;;;;;;;31.23;26.63;;;20.00;99.90;;;;;;5046359;28;20047;-82
2023/08/19 02:49:38;;;;;;;22.85;20.52;;;20.00;99.90;;;;;;5045379;28;20053;-82
2023/08/19 02:52:05;;;;;;;30.27;26.95;;;20.00;99.90;;;;;;5031459;28;20488;-81
2023/08/19 02:54:30;;;;;;;33.65;29.08;;;20.00;99.90;;;;;;5043649;28;20071;-82
2023/08/19 02:56:56;;;;;;;27.15;24.17;;;20.00;99.90;;;;;;5044734;28;20543;-82
2023/08/19 02:59:22;;;;;;;25.45;22.75;;;19.90;99.90;;;;;;5024195;28;20480;-82
2023/08/19 03:01:47;;;;;;;25.00;22.40;;;20.00;99.90;;;;;;5042451;28;20095;-82
2023/08/19 03:04:14;;;;;;;25.48;22.45;;;20.00;99.90;;;;;;5046133;28;20531;-82
2023/08/19 03:06:41;;;;;;;28.63;25.52;;;20.00;99.90;;;;;;5035264;28;20680;-82
2023/08/19 03:09:07;;;;;;;31.48;28.10;;;19.90;99.90;;;;;;5040143;28;20477;-82
2023/08/19 03:11:33;;;;;;;21.42;19.20;;;19.90;99.90;;;;;;5023327;28;20068;-82
2023/08/19 03:13:59;;;;;;;23.95;20.67;;;19.90;99.90;;;;;;5044246;28;20041;-82
2023/08/19 03:16:25;;;;;;;24.42;21.92;;;19.90;99.90;;;;;;5039525;28;20079;-82
2023/08/19 03:18:50;;;;;;;27.23;24.33;;;19.90;99.90;;;;;;5041608;28;20040;-82
2023/08/19 03:21:16;;;;;;;22.63;20.10;;;19.90;99.90;;;;;;5045703;28;20145;-82
2023/08/19 03:23:42;;;;;;;26.15;22.55;;;19.90;99.90;;;;;;5033564;28;20055;-82
2023/08/19 03:26:07;;;;;;;27.55;24.63;;;19.80;99.90;;;;;;5034176;28;20567;-82
2023/08/19 03:28:33;;;;;;;23.83;21.30;;;19.80;99.90;;;;;;5037456;28;20037;-82
2023/08/19 03:30:59;;;;;;;28.92;24.83;;;19.80;99.90;;;;;;5026739;28;20045;-82
2023/08/19 03:33:24;;;;;;;28.98;25.30;;;19.80;99.90;;;;;;5034115;28;20254;-82
2023/08/19 03:35:50;;;;;;;29.35;25.05;;;19.80;99.90;;;;;;5042145;28;20522;-82
2023/08/19 03:38:15;;;;;;;27.48;24.52;;;19.80;99.90;;;;;;5044949;28;20040;-82
2023/08/19 03:40:41;;;;;;;31.45;26.83;;;19.80;99.90;;;;;;5028468;28;20039;-82
2023/08/19 03:43:10;;;;;;;21.05;18.80;;;19.80;99.90;;;;;;5026119;28;20048;-82
2023/08/19 03:45:36;;;;;;;29.08;24.33;;;19.70;99.90;;;;;;5035189;28;20037;-82
2023/08/19 03:48:01;;;;;;;31.17;27.38;;;19.80;99.90;;;;;;5040275;28;20045;-82
2023/08/19 03:50:27;;;;;;;21.70;19.48;;;19.70;99.90;;;;;;5039007;28;20049;-82
2023/08/19 03:52:53;;;;;;;27.23;24.45;;;19.70;99.90;;;;;;5021092;28;20262;-82
2023/08/19 03:55:18;;;;;;;29.52;26.42;;;19.70;99.90;;;;;;5046918;28;20479;-82
2023/08/19 03:57:44;;;;;;;26.05;23.35;;;19.70;99.90;;;;;;5046606;28;20051;-82
2023/08/19 04:00:10;;;;;;;22.50;18.58;;;19.70;99.90;;;;;;5041108;28;20041;-82
2023/08/19 04:02:36;;;;;;;22.85;20.00;;;19.70;99.90;;;;;;5041047;28;20041;-79
2023/08/19 04:05:04;;;;;;;23.67;20.00;;;19.70;99.90;;;;;;5030859;28;20043;-79
2023/08/19 04:07:30;;;;;;;17.48;15.40;;;19.60;99.90;;;;;;5043125;28;20610;-79
2023/08/19 04:09:57;;;;;;;21.70;19.30;;;19.70;99.90;;;;;;5046777;28;20044;-80
2023/08/19 04:12:24;;;;;;;25.77;23.02;;;19.60;99.90;;;;;;5040851;28;20034;-79
2023/08/19 04:14:50;;;;;;;19.52;17.15;;;19.60;99.90;;;;;;5033992;28;20037;-80
2023/08/19 04:17:16;;;;;;;21.23;18.85;;;19.60;99.90;;;;;;5047696;28;20044;-79
2023/08/19 04:19:43;;;;;;;25.70;22.90;;;19.70;99.90;;;;;;5045427;28;20037;-79
2023/08/19 04:22:17;;;;;;;22.00;19.67;;;19.70;99.90;;;;;;5045918;28;20072;-79
2023/08/19 04:24:48;;;;;;;24.23;21.48;;;19.70;99.90;;;;;;5039677;28;20055;-79
2023/08/19 04:27:15;;;;;;;24.10;21.50;;;19.70;99.90;;;;;;5047686;28;20045;-79
2023/08/19 04:29:40;;;;;;;21.55;19.27;;;19.60;99.90;;;;;;5045222;28;20450;-79
2023/08/19 04:32:06;;;;;;;28.13;22.92;;;19.70;99.90;;;;;;5046666;28;20037;-78
2023/08/19 04:34:32;;;;;;;21.98;18.85;;;19.60;99.90;;;;;;5041678;28;20099;-79
2023/08/19 04:36:57;;;;;;;22.00;19.60;;;19.60;99.90;;;;;;5046235;28;20048;-79
2023/08/19 04:39:24;;;;;;;19.52;17.45;;;19.70;99.90;;;;;;5042385;28;20034;-79
2023/08/19 04:41:50;;;;;;;21.75;18.13;;;19.70;99.90;;;;;;5043426;28;20132;-80
2023/08/19 04:44:16;;;;;;;18.92;16.65;;;19.70;99.90;;;;;;5045423;28;20120;-79
2023/08/19 04:46:41;;;;;;;21.13;18.92;;;19.60;99.90;;;;;;5044969;28;20049;-79
2023/08/19 04:49:07;;;;;;;25.02;22.23;;;19.70;99.90;;;;;;5033092;28;20506;-79
2023/08/19 04:51:33;;;;;;;25.88;22.70;;;19.70;99.90;;;;;;5046078;28;20045;-82
2023/08/19 04:53:59;;;;;;;24.65;17.80;;;19.70;99.90;;;;;;5037438;28;20051;-82
2023/08/19 04:56:26;;;;;;;22.77;20.38;;;19.70;99.90;;;;;;5038154;28;20151;-82
2023/08/19 04:58:52;;;;;;;21.95;18.55;;;19.70;99.90;;;;;;5046261;28;20040;-82
2023/08/19 05:01:17;;;;;;;21.60;17.35;;;19.70;99.90;;;;;;5039640;28;20056;-82
2023/08/19 05:03:43;;;;;;;23.50;20.25;;;19.80;99.90;;;;;;5037663;28;20492;-82
2023/08/19 05:06:09;;;;;;;24.95;21.02;;;19.80;99.90;;;;;;5033881;28;20037;-82
2023/08/19 05:08:35;;;;;;;26.40;21.83;;;19.80;99.90;;;;;;5038540;28;20512;-82
2023/08/19 05:11:00;;;;;;;23.33;20.95;;;19.80;99.90;;;;;;5037533;28;20045;-82
2023/08/19 05:13:26;;;;;;;26.20;21.35;;;19.90;99.90;;;;;;5024262;28;20044;-82
2023/08/19 05:15:51;;;;;;;21.90;19.17;;;19.90;99.90;;;;;;5043790;28;20041;-82
2023/08/19 05:18:17;;;;;;;23.45;20.30;;;19.90;99.90;;;;;;5040194;28;20049;-82
2023/08/19 05:20:43;;;;;;;25.27;20.42;;;20.00;99.90;;;;;;5046194;28;20041;-82
2023/08/19 05:23:09;;;;;;;21.92;19.05;;;20.00;99.90;;;;;;5044369;28;20064;-82
2023/08/19 05:25:34;;;;;;;25.17;20.27;;;20.00;99.90;;;;;;5037400;28;20457;-82
2023/08/19 05:28:00;;;;;;;22.38;19.48;;;20.00;99.90;;;;;;5026901;28;20095;-82
2023/08/19 05:30:25;;;;;;;23.05;19.17;;;20.10;99.90;;;;;;5026187;28;20452;-82
2023/08/19 05:32:51;;;;;;;22.15;19.00;;;20.10;99.90;;;;;;5040852;28;20041;-82
2023/08/19 05:35:20;;;;;;;22.25;18.98;;;20.10;99.90;;;;;;5041332;28;20102;-82
2023/08/19 05:37:45;;;;;;;24.05;19.05;;;20.20;99.90;;;;;;5056681;28;20492;-82
2023/08/19 05:40:11;;;;;;;19.70;17.50;;;20.20;99.90;;;;;;5023579;28;20033;-82
2023/08/19 05:42:37;;;;;;;22.73;18.60;;;20.20;99.90;;;;;;5042897;28;20485;-82
2023/08/19 05:45:03;;;;;;;23.23;18.33;;;20.20;99.90;;;;;;5044852;28;20051;-82
2023/08/19 05:47:29;;;;;;;20.35;17.65;;;20.10;99.90;;;;;;5026112;28;20187;-82
2023/08/19 05:49:54;;;;;;;21.83;17.90;;;20.20;99.90;;;;;;5037284;28;20438;-82
2023/08/19 05:52:20;;;;;;;20.80;17.15;;;20.20;99.90;;;;;;5038455;28;20052;-82
2023/08/19 05:54:46;;;;;;;24.45;17.10;;;20.30;99.90;;;;;;5029327;28;20049;-82
2023/08/19 05:57:11;;;;;;;20.60;17.10;;;20.30;99.90;;;;;;5040769;28;20041;-82
2023/08/19 05:59:37;;;;;;;21.67;17.80;;;20.30;99.90;;;;;;5050022;28;21715;-82
2023/08/19 06:02:03;;;;;;;21.10;17.42;;;20.30;99.90;;;;;;5037920;28;20037;-82
2023/08/19 06:04:28;;;;;;;21.23;17.20;;;20.30;99.90;;;;;;5037468;28;20029;-82
2023/08/19 06:06:54;;;;;;;18.83;16.02;;;20.30;99.90;;;;;;5038201;28;20120;-82
2023/08/19 06:09:20;;;;;;;19.48;15.93;;;20.40;99.90;;;;;;5033236;28;20504;-79
2023/08/19 06:11:52;;;;;;;21.13;15.63;;;20.40;99.90;;;;;;5049497;28;20046;-79
2023/08/19 06:14:19;;;;;;;19.50;16.05;;;20.50;99.90;;;;;;5042744;28;20081;-80
2023/08/19 06:16:46;;;;;;;19.23;15.35;;;20.60;99.90;;;;;;5046764;28;20577;-80
2023/08/19 06:19:12;;;;;;;17.77;15.20;;;20.60;99.90;;;;;;5046261;28;20084;-79
2023/08/19 06:21:38;;;;;;;18.83;15.18;;;20.70;99.90;;;;;;5040381;28;20041;-79
2023/08/19 06:24:05;;;;;;;17.77;14.57;;;20.70;99.90;;;;;;5042513;28;20064;-80
2023/08/19 06:26:30;;;;;;;19.13;14.48;;;20.80;99.90;;;;;;5042955;28;20060;-80
2023/08/19 06:28:56;;;;;;;18.20;14.98;;;20.80;99.90;;;;;;5045529;28;20408;-81
2023/08/19 06:31:22;;;;;;;17.33;14.43;;;20.90;99.90;;;;;;5042841;28;20030;-81
2023/08/19 06:33:49;;;;;;;16.17;13.70;;;21.00;99.90;;;;;;5044753;28;20029;-83
2023/08/19 06:36:20;;;;;;;15.93;13.10;;;21.00;99.90;;;;;;5042876;28;20120;-84
2023/08/19 06:38:49;;;;;;;15.10;13.50;;;21.10;99.90;;;;;;5047627;28;20068;-83
2023/08/19 06:41:17;;;;;;;16.52;14.35;;;21.10;99.90;;;;;;5048626;28;20087;-84
2023/08/19 06:43:43;;;;;;;16.00;13.07;;;21.20;99.90;;;;;;5038867;28;20037;-84
2023/08/19 06:46:10;;;;;;;14.02;12.30;;;21.20;99.90;;;;;;5041399;28;20041;-82
2023/08/19 06:48:36;;;;;;;18.45;12.70;;;21.20;99.90;;;;;;5036309;28;20043;-83
2023/08/19 06:51:04;;;;;;;16.98;12.20;;;21.20;99.90;;;;;;5068405;28;20048;-83
2023/08/19 06:53:29;;;;;;;14.68;11.27;;;21.20;99.90;;;;;;5032321;28;20040;-82
2023/08/19 06:56:07;;;;;;;16.27;12.98;;;21.20;99.90;;;;;;5029119;28;20055;-83
2023/08/19 06:58:40;;;;;;;13.93;12.35;;;21.20;99.90;;;;;;5044688;28;20065;-82
2023/08/19 07:01:21;;;;;;;17.42;12.50;;;21.20;99.90;;;;;;5049285;28;20043;-84
2023/08/19 07:03:50;;;;;;;15.88;11.93;;;21.20;99.90;;;;;;5042684;28;20044;-83
2023/08/19 07:06:18;;;;;;;12.95;10.85;;;21.20;99.90;;;;;;5057445;28;20041;-83
2023/08/19 07:08:45;;;;;;;15.95;11.10;;;21.20;99.90;;;;;;5046794;28;20396;-82
2023/08/19 07:11:10;;;;;;;13.85;11.02;;;21.30;99.90;;;;;;5030208;28;20090;-82
2023/08/19 07:13:37;;;;;;;14.25;11.00;;;21.30;99.90;;;;;;5050229;28;20036;-82
2023/08/19 07:16:04;;;;;;;14.15;11.43;;;21.30;99.90;;;;;;5043432;28;20044;-82
2023/08/19 07:18:34;;;;;;;13.35;10.90;;;21.30;99.90;;;;;;5066470;28;20424;-82
2023/08/19 07:21:00;;;;;;;14.05;11.25;;;21.30;99.90;;;;;;5045749;28;20044;-82
2023/08/19 07:23:28;;;;;;;14.07;11.18;;;21.30;99.90;;;;;;5046619;28;20424;-82
2023/08/19 07:25:54;;;;;;;14.27;10.88;;;21.40;99.90;;;;;;5065077;28;20028;-88
2023/08/19 07:28:23;;;;;;;12.93;11.23;;;21.40;99.90;;;;;;5048415;28;20040;-84
2023/08/19 07:30:49;;;;;;;17.88;11.60;;;21.50;99.90;;;;;;5051544;28;20041;-83
2023/08/19 07:33:14;;;;;;;13.75;10.77;;;21.50;99.90;;;;;;5070537;28;20120;-85
2023/08/19 07:35:40;;;;;;;16.38;10.50;;;21.50;99.90;;;;;;5048288;28;20075;-86
2023/08/19 07:38:06;;;;;;;13.68;11.00;;;21.60;99.90;;;;;;5040822;28;20127;-83
2023/08/19 07:40:32;;;;;;;14.10;10.35;;;21.60;99.90;;;;;;5047950;28;20511;-83
2023/08/19 07:42:57;;;;;;;13.57;10.98;;;21.70;99.90;;;;;;5068763;28;20040;-83
2023/08/19 07:45:23;;;;;;;12.15;9.10;;;21.70;99.90;;;;;;5068666;28;20640;-83
2023/08/19 07:47:49;;;;;;;11.40;9.70;;;21.80;99.90;;;;;;5043279;28;20547;-83
2023/08/19 07:50:15;;;;;;;13.77;10.98;;;21.90;99.90;;;;;;5048541;28;20061;-83
2023/08/19 07:52:40;;;;;;;12.32;10.18;;;21.90;99.90;;;;;;5046580;28;20049;-83
2023/08/19 07:55:07;;;;;;;13.23;9.43;;;21.90;99.90;;;;;;5044842;28;20044;-84
2023/08/19 07:57:33;;;;;;;12.32;9.93;;;22.00;99.90;;;;;;5049748;28;20068;-83
2023/08/19 07:59:58;;;;;;;12.20;9.55;;;22.00;99.90;;;;;;5050197;28;20040;-83
2023/08/19 08:02:24;;;;;;;11.02;9.65;;;22.00;99.90;;;;;;5046195;28;20037;-83
2023/08/19 08:04:50;;;;;;;11.68;9.18;;;22.10;99.90;;;;;;5035259;28;20101;-83
2023/08/19 08:07:15;;;;;;;11.55;8.57;;;22.10;99.90;;;;;;5042899;28;20047;-83
2023/08/19 08:09:43;;;;;;;11.30;8.23;;;22.10;99.90;;;;;;5048435;28;20043;-83
2023/08/19 08:12:09;;;;;;;11.27;8.52;;;22.20;99.90;;;;;;5050136;28;20067;-83
2023/08/19 08:14:35;;;;;;;10.60;8.25;;;22.20;99.90;;;;;;5048486;28;20772;-83
2023/08/19 08:17:00;;;;;;;11.20;7.75;;;22.20;99.90;;;;;;5064223;28;20102;-84
2023/08/19 08:19:26;;;;;;;11.48;7.60;;;22.30;99.90;;;;;;5050216;28;20051;-84
2023/08/19 08:21:53;;;;;;;9.75;7.50;;;22.30;99.90;;;;;;5067985;28;20029;-83
2023/08/19 08:24:20;;;;;;;11.15;7.90;;;22.30;99.90;;;;;;5068122;28;20068;-83
2023/08/19 08:26:46;;;;;;;11.45;8.20;;;22.40;99.90;;;;;;5049239;28;20052;-83
2023/08/19 08:29:12;;;;;;;12.18;7.88;;;22.50;99.90;;;;;;5042255;28;20396;-83
2023/08/19 08:31:37;;;;;;;10.38;7.45;;;22.60;99.90;;;;;;5049613;28;20028;-83
2023/08/19 08:34:04;;;;;;;10.43;7.28;;;22.60;99.90;;;;;;5048155;28;20059;-84
2023/08/19 08:36:29;;;;;;;9.38;7.38;;;22.70;99.90;;;;;;5039467;28;20499;-84
2023/08/19 08:38:55;;;;;;;12.23;7.38;;;22.70;99.90;;;;;;5050617;28;20028;-83
2023/08/19 08:41:22;;;;;;;11.95;7.07;;;22.70;99.90;;;;;;5068425;28;20478;-83
2023/08/19 08:43:48;;;;;;;9.10;6.60;;;22.80;99.90;;;;;;5027195;28;20032;-83
2023/08/19 08:46:18;;;;;;;9.15;6.97;;;22.80;99.90;;;;;;5066594;28;20483;-83
2023/08/19 08:48:45;;;;;;;9.80;6.93;;;22.80;99.90;;;;;;5039613;28;20040;-83
2023/08/19 08:51:12;;;;;;;8.95;6.97;;;22.90;99.90;;;;;;5057947;28;20049;-83
2023/08/19 08:53:38;;;;;;;9.05;7.20;;;22.90;99.90;;;;;;5039936;28;20032;-83
2023/08/19 08:56:05;;;;;;;11.60;7.10;;;23.00;99.90;;;;;;5047313;28;20036;-84
2023/08/19 08:58:32;;;;;;;11.05;7.07;;;23.20;99.90;;;;;;5031913;28;20179;-83
2023/08/19 09:01:00;;;;;;;9.70;6.50;;;23.20;99.90;;;;;;5049268;28;20105;-83
2023/08/19 09:03:30;;;;;;;8.90;6.95;;;23.30;99.90;;;;;;5046826;28;20120;-83
2023/08/19 09:06:00;;;;;;;10.65;6.45;;;23.40;99.90;;;;;;5045051;28;20113;-83
2023/08/19 09:08:33;;;;;;;9.13;6.72;;;23.50;99.90;;;;;;5061646;28;20114;-84
2023/08/19 09:11:02;;;;;;;8.18;6.20;;;23.60;99.90;;;;;;5044168;28;20044;-83
2023/08/19 09:13:30;;;;;;;11.75;6.40;;;23.80;99.90;;;;;;5064812;28;20036;-83
2023/08/19 09:15:56;;;;;;;8.82;5.38;;;23.90;99.90;;;;;;5049227;28;20048;-83
2023/08/19 09:18:22;;;;;;;11.35;6.25;;;24.00;99.90;;;;;;5065798;28;20400;-83
2023/08/19 09:20:49;;;;;;;10.10;6.43;;;24.10;99.90;;;;;;5037430;28;20041;-83
2023/08/19 09:23:15;;;;;;;9.10;6.15;;;24.10;99.90;;;;;;5042526;28;20040;-83
2023/08/19 09:25:44;;;;;;;13.82;6.70;;;24.30;99.90;;;;;;5038346;28;20382;-84
2023/08/19 09:28:16;;;;;;;12.48;5.95;;;24.30;99.90;;;;;;5040289;28;20047;-83
2023/08/19 09:30:41;;;;;;;10.20;6.00;;;24.50;99.90;;;;;;5066330;28;20036;-83
2023/08/19 09:33:07;;;;;;;11.20;6.25;;;24.60;99.90;;;;;;5047734;28;20040;-83
2023/08/19 09:35:37;;;;;;;9.50;6.28;;;24.60;99.90;;;;;;5062758;28;20082;-83
2023/08/19 09:38:03;;;;;;;12.45;6.18;;;24.60;99.90;;;;;;5044536;28;20103;-83
2023/08/19 09:40:30;;;;;;;8.18;5.57;;;24.60;99.90;;;;;;5036043;28;20029;-84
2023/08/19 09:43:00;;;;;;;8.40;5.90;;;24.70;99.90;;;;;;5040077;28;20086;-83
2023/08/19 09:45:27;;;;;;;8.45;5.57;;;24.70;99.90;;;;;;5060098;28;20041;-83
2023/08/19 09:47:54;;;;;;;10.80;5.53;;;24.80;99.90;;;;;;5045155;28;20074;-84
2023/08/19 09:50:22;;;;;;;10.38;5.50;;;24.80;99.90;;;;;;5045810;28;20049;-83
2023/08/19 09:52:55;;;;;;;9.90;6.35;;;24.90;99.90;;;;;;5045042;28;20135;-83
2023/08/19 09:55:23;;;;;;;10.75;5.25;;;24.90;99.90;;;;;;5064166;28;20041;-83
2023/08/19 09:57:48;;;;;;;11.10;5.22;;;25.00;99.90;;;;;;5037331;28;20043;-84
2023/08/19 10:00:14;;;;;;;9.00;5.95;;;25.00;99.90;;;;;;5043117;28;20123;-84
2023/08/19 10:02:40;;;;;;;7.72;5.40;;;25.10;99.90;;;;;;5057932;28;20052;-84
2023/08/19 10:05:06;;;;;;;10.52;6.07;;;25.20;99.90;;;;;;5065629;28;20041;-84
2023/08/19 10:07:33;;;;;;;13.50;5.65;;;25.30;99.90;;;;;;5061617;28;20044;-84
2023/08/19 10:10:04;;;;;;;10.55;5.93;;;25.40;99.90;;;;;;5045015;28;20079;-83
2023/08/19 10:12:33;;;;;;;16.63;5.63;;;25.40;99.90;;;;;;5039015;28;20093;-83
2023/08/19 10:15:00;;;;;;;10.25;6.53;;;25.40;99.90;;;;;;5023696;28;20495;-83
2023/08/19 10:17:28;;;;;;;10.05;5.30;;;25.40;99.90;;;;;;5031299;28;20123;-83
2023/08/19 10:20:05;;;;;;;9.15;5.22;;;25.40;99.90;;;;;;5037181;28;20042;-83
2023/08/19 10:22:34;;;;;;;10.23;5.72;;;25.30;99.90;;;;;;5043978;28;20122;-83
2023/08/19 10:25:00;;;;;;;9.40;6.38;;;25.30;99.90;;;;;;5046838;28;20032;-83
2023/08/19 10:27:26;;;;;;;12.90;6.68;;;25.20;99.90;;;;;;5055812;28;20045;-82
2023/08/19 10:29:58;;;;;;;13.65;7.15;;;25.10;99.90;;;;;;5031598;28;20040;-82
2023/08/19 10:32:30;;;;;;;12.73;8.02;;;25.00;99.90;;;;;;5061811;28;20035;-81
2023/08/19 10:35:09;;;;;;;10.40;7.30;;;24.80;99.90;;;;;;5044248;28;20044;-81
2023/08/19 10:37:49;;;;;;;12.90;8.13;;;24.80;99.90;;;;;;5043698;28;20143;-82
2023/08/19 10:40:21;;;;;;;12.05;7.50;;;24.70;99.90;;;;;;5060891;28;20055;-82
2023/08/19 10:43:00;;;;;;;11.57;8.80;;;24.60;99.90;;;;;;5048713;28;20059;-82
2023/08/19 10:45:36;;;;;;;15.20;8.77;;;24.50;99.90;;;;;;5028123;28;20051;-82
2023/08/19 10:48:02;;;;;;;13.38;8.45;;;24.50;99.90;;;;;;5047607;28;20040;-82
2023/08/19 10:50:35;;;;;;;14.75;8.52;;;24.40;99.90;;;;;;5058878;28;20107;-82
2023/08/19 10:53:06;;;;;;;13.55;8.93;;;24.40;99.90;;;;;;5063877;28;20044;-82
2023/08/19 10:56:11;;;;;;;10.85;8.73;;;24.40;99.90;;;;;;5045448;28;20421;-82
2023/08/19 10:58:37;;;;;;;;;;;24.40;99.90;;;;;;5020332;28;20106;-82
2023/08/19 11:01:03;;;;;;;13.35;8.95;;;24.40;99.90;;;;;;5051828;28;19920;-82
2023/08/19 11:03:29;;;;;;;12.63;8.80;;;24.40;99.90;;;;;;5062743;28;20039;-82
2023/08/19 11:05:55;;;;;;;14.32;9.55;;;24.40;99.90;;;;;;5048157;28;20547;-82
2023/08/19 11:08:20;;;;;;;15.88;9.63;;;24.40;99.90;;;;;;5062973;28;20032;-82
2023/08/19 11:10:46;;;;;;;14.85;9.95;;;24.30;99.90;;;;;;5027640;28;20143;-82
2023/08/19 11:13:13;;;;;;;12.70;9.45;;;24.30;99.90;;;;;;5061520;28;20086;-81
2023/08/19 11:15:41;;;;;;;13.30;9.43;;;24.30;99.90;;;;;;5048451;28;20033;-81
2023/08/19 11:18:06;;;;;;;11.95;9.40;;;24.30;99.90;;;;;;5063933;28;20075;-81
2023/08/19 11:20:32;;;;;;;14.63;10.25;;;24.30;99.90;;;;;;5043423;28;20452;-81
2023/08/19 11:22:58;;;;;;;14.85;10.18;;;24.30;99.90;;;;;;5046597;28;20036;-82
2023/08/19 11:25:34;;;;;;;13.40;9.70;;;24.30;99.90;;;;;;5039082;28;20467;-82
2023/08/19 11:28:00;;;;;;;12.25;10.02;;;24.40;99.90;;;;;;5021732;28;20774;-82
2023/08/19 11:30:26;;;;;;;15.10;10.30;;;24.60;99.90;;;;;;5045796;28;20044;-81
2023/08/19 11:32:51;;;;;;;14.57;9.43;;;24.70;99.90;;;;;;5047103;28;20043;-82
2023/08/19 11:35:17;;;;;;;11.95;9.82;;;25.00;99.90;;;;;;5068431;28;20104;-82
2023/08/19 11:37:44;;;;;;;12.07;9.93;;;25.20;99.90;;;;;;5063131;28;20037;-82
2023/08/19 11:40:13;;;;;;;12.90;10.63;;;25.40;99.90;;;;;;5028595;28;20037;-83
2023/08/19 11:42:38;;;;;;;12.65;9.15;;;25.50;99.90;;;;;;5033112;28;20036;-85
2023/08/19 11:45:09;;;;;;;12.27;9.48;;;25.50;99.90;;;;;;5049477;28;20032;-84
2023/08/19 11:47:35;;;;;;;14.10;10.70;;;25.50;99.90;;;;;;5041490;28;20075;-83
2023/08/19 11:50:05;;;;;;;15.68;11.55;;;25.50;99.90;;;;;;5031624;28;20057;-84
2023/08/19 11:52:34;;;;;;;16.13;11.80;;;25.40;99.90;;;;;;5033670;28;20094;-84
2023/08/19 11:55:01;;;;;;;14.13;12.48;;;25.50;99.90;;;;;;5054211;28;20124;-84
2023/08/19 11:57:35;;;;;;;19.63;13.18;;;25.50;99.90;;;;;;5047268;28;20036;-84
2023/08/19 12:00:01;;;;;;;;;;;25.50;99.90;;;;;;5029131;28;20547;-81
2023/08/19 12:02:27;;;;;;;16.17;12.75;;;25.50;99.90;;;;;;5031411;28;20007;-81
2023/08/19 12:04:54;;;;;;;18.85;13.95;;;25.60;99.90;;;;;;5046124;28;20041;-80
2023/08/19 12:07:28;;;;;;;16.52;12.65;;;25.70;99.90;;;;;;5045106;28;20135;-83
2023/08/19 12:09:58;;;;;;;18.98;14.48;;;25.70;99.90;;;;;;5048307;28;20322;-82
2023/08/19 12:12:24;;;;;;;17.02;13.32;;;25.80;99.90;;;;;;5048739;28;20495;-83
2023/08/19 12:14:49;;;;;;;17.63;14.60;;;25.90;99.90;;;;;;5044445;28;20084;-83
2023/08/19 12:17:16;;;;;;;19.52;15.18;;;26.00;99.90;;;;;;5033357;28;20119;-82
2023/08/19 12:19:41;;;;;;;20.85;15.57;;;26.10;99.90;;;;;;5044165;28;20120;-82
2023/08/19 12:22:09;;;;;;;18.85;16.75;;;26.20;99.90;;;;;;5052035;28;20421;-82
2023/08/19 12:24:35;;;;;;;20.15;17.83;;;26.20;99.90;;;;;;5039496;28;20258;-82
2023/08/19 12:27:00;;;;;;;19.77;17.52;;;26.30;99.90;;;;;;5038842;28;20145;-82
2023/08/19 12:29:27;;;;;;;25.05;18.63;;;26.30;99.90;;;;;;5048107;28;20484;-82
2023/08/19 12:31:52;;;;;;;24.88;19.00;;;26.40;99.90;;;;;;5063562;28;20137;-84